sensor_id;sensor_type;location;lat;lon;timestamp;P1;durP1;ratioP1;P2;durP2;ratioP2
9370;SDS011;4725;48.384;8.984;2023-04-25T00:02:12;6.73;;;2.47;;
9370;SDS011;4725;48.384;8.984;2023-04-25T00:04:39;3.13;;;1.73;;
9370;SDS011;4725;48.384;8.984;2023-04-25T00:07:06;2.40;;;1.70;;
9370;SDS011;4725;48.384;8.984;2023-04-25T00:09:34;2.73;;;1.80;;
9370;SDS011;4725;48.384;8.984;2023-04-25T00:12:01;3.53;;;1.77;;
9370;SDS011;4725;48.384;8.984;2023-04-25T00:14:28;1.90;;;1.70;;
9370;SDS011;4725;48.384;8.984;2023-04-25T00:16:58;5.40;;;2.30;;
9370;SDS011;4725;48.384;8.984;2023-04-25T00:19:25;5.20;;;1.70;;
9370;SDS011;4725;48.384;8.984;2023-04-25T00:21:53;2.80;;;1.50;;
9370;SDS011;4725;48.384;8.984;2023-04-25T00:24:20;2.10;;;1.23;;
9370;SDS011;4725;48.384;8.984;2023-04-25T00:26:48;3.27;;;1.63;;
9370;SDS011;4725;48.384;8.984;2023-04-25T00:29:15;4.27;;;1.70;;
9370;SDS011;4725;48.384;8.984;2023-04-25T00:31:42;5.33;;;1.83;;
9370;SDS011;4725;48.384;8.984;2023-04-25T00:34:08;2.70;;;1.70;;
9370;SDS011;4725;48.384;8.984;2023-04-25T00:36:35;2.83;;;1.87;;
9370;SDS011;4725;48.384;8.984;2023-04-25T00:39:03;3.10;;;1.70;;
9370;SDS011;4725;48.384;8.984;2023-04-25T00:41:31;4.33;;;2.00;;
9370;SDS011;4725;48.384;8.984;2023-04-25T00:44:00;1.87;;;1.33;;
9370;SDS011;4725;48.384;8.984;2023-04-25T00:46:28;2.03;;;1.60;;
9370;SDS011;4725;48.384;8.984;2023-04-25T00:48:56;3.53;;;1.77;;
9370;SDS011;4725;48.384;8.984;2023-04-25T00:51:22;4.87;;;1.97;;
9370;SDS011;4725;48.384;8.984;2023-04-25T00:53:50;3.00;;;1.60;;
9370;SDS011;4725;48.384;8.984;2023-04-25T00:56:17;4.33;;;1.80;;
9370;SDS011;4725;48.384;8.984;2023-04-25T00:58:45;2.93;;;2.00;;
9370;SDS011;4725;48.384;8.984;2023-04-25T01:01:13;4.53;;;1.70;;
9370;SDS011;4725;48.384;8.984;2023-04-25T01:03:40;2.47;;;1.53;;
9370;SDS011;4725;48.384;8.984;2023-04-25T01:06:07;2.17;;;1.50;;
9370;SDS011;4725;48.384;8.984;2023-04-25T01:08:35;2.90;;;1.90;;
9370;SDS011;4725;48.384;8.984;2023-04-25T01:11:03;3.27;;;1.80;;
9370;SDS011;4725;48.384;8.984;2023-04-25T01:13:30;2.33;;;1.70;;
9370;SDS011;4725;48.384;8.984;2023-04-25T01:15:57;3.30;;;1.70;;
9370;SDS011;4725;48.384;8.984;2023-04-25T01:18:26;4.20;;;1.97;;
9370;SDS011;4725;48.384;8.984;2023-04-25T01:20:53;5.03;;;2.10;;
9370;SDS011;4725;48.384;8.984;2023-04-25T01:23:22;1.87;;;1.50;;
9370;SDS011;4725;48.384;8.984;2023-04-25T01:25:49;4.90;;;1.90;;
9370;SDS011;4725;48.384;8.984;2023-04-25T01:28:16;2.70;;;1.60;;
9370;SDS011;4725;48.384;8.984;2023-04-25T01:30:44;3.23;;;1.97;;
9370;SDS011;4725;48.384;8.984;2023-04-25T01:33:11;3.63;;;2.20;;
9370;SDS011;4725;48.384;8.984;2023-04-25T01:35:40;4.00;;;2.00;;
9370;SDS011;4725;48.384;8.984;2023-04-25T01:38:07;3.03;;;2.10;;
9370;SDS011;4725;48.384;8.984;2023-04-25T01:40:35;3.73;;;2.07;;
9370;SDS011;4725;48.384;8.984;2023-04-25T01:43:05;3.43;;;1.80;;
9370;SDS011;4725;48.384;8.984;2023-04-25T01:45:33;2.60;;;1.67;;
9370;SDS011;4725;48.384;8.984;2023-04-25T01:48:01;3.00;;;1.87;;
9370;SDS011;4725;48.384;8.984;2023-04-25T01:50:28;3.67;;;2.00;;
9370;SDS011;4725;48.384;8.984;2023-04-25T01:52:55;3.33;;;1.40;;
9370;SDS011;4725;48.384;8.984;2023-04-25T01:55:23;8.37;;;2.23;;
9370;SDS011;4725;48.384;8.984;2023-04-25T01:57:51;8.03;;;2.03;;
9370;SDS011;4725;48.384;8.984;2023-04-25T02:00:18;3.30;;;1.60;;
9370;SDS011;4725;48.384;8.984;2023-04-25T02:02:45;3.90;;;1.87;;
9370;SDS011;4725;48.384;8.984;2023-04-25T02:05:13;4.30;;;1.60;;
9370;SDS011;4725;48.384;8.984;2023-04-25T02:07:40;4.13;;;1.90;;
9370;SDS011;4725;48.384;8.984;2023-04-25T02:10:07;3.03;;;1.63;;
9370;SDS011;4725;48.384;8.984;2023-04-25T02:12:35;1.73;;;1.53;;
9370;SDS011;4725;48.384;8.984;2023-04-25T02:15:04;5.03;;;1.83;;
9370;SDS011;4725;48.384;8.984;2023-04-25T02:17:32;9.47;;;2.00;;
9370;SDS011;4725;48.384;8.984;2023-04-25T02:19:58;4.47;;;1.90;;
9370;SDS011;4725;48.384;8.984;2023-04-25T02:22:25;3.87;;;1.93;;
9370;SDS011;4725;48.384;8.984;2023-04-25T02:24:55;2.13;;;1.50;;
9370;SDS011;4725;48.384;8.984;2023-04-25T02:27:22;2.60;;;1.93;;
9370;SDS011;4725;48.384;8.984;2023-04-25T02:29:49;4.80;;;1.80;;
9370;SDS011;4725;48.384;8.984;2023-04-25T02:32:17;5.13;;;2.00;;
9370;SDS011;4725;48.384;8.984;2023-04-25T02:34:44;3.07;;;2.20;;
9370;SDS011;4725;48.384;8.984;2023-04-25T02:37:11;3.23;;;1.70;;
9370;SDS011;4725;48.384;8.984;2023-04-25T02:39:38;5.30;;;1.67;;
9370;SDS011;4725;48.384;8.984;2023-04-25T02:42:04;3.30;;;1.50;;
9370;SDS011;4725;48.384;8.984;2023-04-25T02:44:31;1.90;;;1.40;;
9370;SDS011;4725;48.384;8.984;2023-04-25T02:46:58;1.90;;;1.70;;
9370;SDS011;4725;48.384;8.984;2023-04-25T02:49:26;2.57;;;1.60;;
9370;SDS011;4725;48.384;8.984;2023-04-25T02:51:53;3.43;;;1.50;;
9370;SDS011;4725;48.384;8.984;2023-04-25T02:54:20;3.07;;;1.30;;
9370;SDS011;4725;48.384;8.984;2023-04-25T02:56:47;2.60;;;1.80;;
9370;SDS011;4725;48.384;8.984;2023-04-25T02:59:13;5.63;;;2.00;;
9370;SDS011;4725;48.384;8.984;2023-04-25T03:01:40;2.73;;;1.53;;
9370;SDS011;4725;48.384;8.984;2023-04-25T03:04:07;4.70;;;1.90;;
9370;SDS011;4725;48.384;8.984;2023-04-25T03:06:36;1.80;;;1.70;;
9370;SDS011;4725;48.384;8.984;2023-04-25T03:09:03;2.53;;;1.73;;
9370;SDS011;4725;48.384;8.984;2023-04-25T03:11:29;2.87;;;1.87;;
9370;SDS011;4725;48.384;8.984;2023-04-25T03:13:56;2.47;;;1.40;;
9370;SDS011;4725;48.384;8.984;2023-04-25T03:16:23;2.70;;;1.77;;
9370;SDS011;4725;48.384;8.984;2023-04-25T03:18:50;4.83;;;1.60;;
9370;SDS011;4725;48.384;8.984;2023-04-25T03:21:17;2.27;;;1.70;;
9370;SDS011;4725;48.384;8.984;2023-04-25T03:23:45;5.27;;;1.70;;
9370;SDS011;4725;48.384;8.984;2023-04-25T03:26:12;4.03;;;1.73;;
9370;SDS011;4725;48.384;8.984;2023-04-25T03:28:41;2.40;;;1.70;;
9370;SDS011;4725;48.384;8.984;2023-04-25T03:31:08;1.73;;;1.63;;
9370;SDS011;4725;48.384;8.984;2023-04-25T03:33:35;3.27;;;2.07;;
9370;SDS011;4725;48.384;8.984;2023-04-25T03:36:02;2.83;;;1.70;;
9370;SDS011;4725;48.384;8.984;2023-04-25T03:38:29;4.27;;;1.50;;
9370;SDS011;4725;48.384;8.984;2023-04-25T03:40:57;2.63;;;1.90;;
9370;SDS011;4725;48.384;8.984;2023-04-25T03:43:24;5.07;;;2.17;;
9370;SDS011;4725;48.384;8.984;2023-04-25T03:45:51;3.40;;;1.80;;
9370;SDS011;4725;48.384;8.984;2023-04-25T03:48:18;4.33;;;2.53;;
9370;SDS011;4725;48.384;8.984;2023-04-25T03:50:46;2.57;;;1.90;;
9370;SDS011;4725;48.384;8.984;2023-04-25T03:53:13;6.97;;;2.17;;
9370;SDS011;4725;48.384;8.984;2023-04-25T03:55:40;3.03;;;1.80;;
9370;SDS011;4725;48.384;8.984;2023-04-25T03:58:08;3.47;;;2.13;;
9370;SDS011;4725;48.384;8.984;2023-04-25T04:00:35;2.87;;;1.83;;
9370;SDS011;4725;48.384;8.984;2023-04-25T04:03:02;3.53;;;1.97;;
9370;SDS011;4725;48.384;8.984;2023-04-25T04:05:29;6.10;;;1.93;;
9370;SDS011;4725;48.384;8.984;2023-04-25T04:07:57;3.67;;;2.07;;
9370;SDS011;4725;48.384;8.984;2023-04-25T04:10:24;2.97;;;1.97;;
9370;SDS011;4725;48.384;8.984;2023-04-25T04:12:52;2.67;;;1.57;;
9370;SDS011;4725;48.384;8.984;2023-04-25T04:15:20;2.63;;;1.87;;
9370;SDS011;4725;48.384;8.984;2023-04-25T04:17:47;3.63;;;1.97;;
9370;SDS011;4725;48.384;8.984;2023-04-25T04:20:14;4.53;;;2.03;;
9370;SDS011;4725;48.384;8.984;2023-04-25T04:22:41;4.57;;;2.50;;
9370;SDS011;4725;48.384;8.984;2023-04-25T04:25:08;5.47;;;1.97;;
9370;SDS011;4725;48.384;8.984;2023-04-25T04:27:36;4.47;;;2.40;;
9370;SDS011;4725;48.384;8.984;2023-04-25T04:30:04;4.47;;;1.93;;
9370;SDS011;4725;48.384;8.984;2023-04-25T04:32:33;3.37;;;1.63;;
9370;SDS011;4725;48.384;8.984;2023-04-25T04:35:02;3.30;;;2.03;;
9370;SDS011;4725;48.384;8.984;2023-04-25T04:37:31;4.47;;;2.40;;
9370;SDS011;4725;48.384;8.984;2023-04-25T04:39:58;4.73;;;2.63;;
9370;SDS011;4725;48.384;8.984;2023-04-25T04:42:30;2.77;;;1.60;;
9370;SDS011;4725;48.384;8.984;2023-04-25T04:44:56;3.50;;;2.00;;
9370;SDS011;4725;48.384;8.984;2023-04-25T04:47:23;3.33;;;2.30;;
9370;SDS011;4725;48.384;8.984;2023-04-25T04:49:52;6.10;;;3.57;;
9370;SDS011;4725;48.384;8.984;2023-04-25T04:52:19;5.53;;;3.00;;
9370;SDS011;4725;48.384;8.984;2023-04-25T04:54:45;4.73;;;2.57;;
9370;SDS011;4725;48.384;8.984;2023-04-25T04:57:12;5.90;;;3.67;;
9370;SDS011;4725;48.384;8.984;2023-04-25T04:59:39;7.13;;;3.70;;
9370;SDS011;4725;48.384;8.984;2023-04-25T05:02:06;6.70;;;3.20;;
9370;SDS011;4725;48.384;8.984;2023-04-25T05:04:33;5.23;;;2.93;;
9370;SDS011;4725;48.384;8.984;2023-04-25T05:07:01;4.23;;;2.50;;
9370;SDS011;4725;48.384;8.984;2023-04-25T05:09:28;4.93;;;2.50;;
9370;SDS011;4725;48.384;8.984;2023-04-25T05:11:55;6.47;;;3.17;;
9370;SDS011;4725;48.384;8.984;2023-04-25T05:14:22;8.70;;;3.70;;
9370;SDS011;4725;48.384;8.984;2023-04-25T05:16:48;6.57;;;1.80;;
9370;SDS011;4725;48.384;8.984;2023-04-25T05:19:15;3.57;;;1.83;;
9370;SDS011;4725;48.384;8.984;2023-04-25T05:21:42;3.33;;;1.97;;
9370;SDS011;4725;48.384;8.984;2023-04-25T05:24:11;5.63;;;2.07;;
9370;SDS011;4725;48.384;8.984;2023-04-25T05:26:38;1.87;;;1.73;;
9370;SDS011;4725;48.384;8.984;2023-04-25T05:29:04;2.77;;;2.07;;
9370;SDS011;4725;48.384;8.984;2023-04-25T05:31:31;3.50;;;1.77;;
9370;SDS011;4725;48.384;8.984;2023-04-25T05:33:58;2.90;;;2.10;;
9370;SDS011;4725;48.384;8.984;2023-04-25T05:36:25;4.10;;;2.23;;
9370;SDS011;4725;48.384;8.984;2023-04-25T05:38:52;3.27;;;2.17;;
9370;SDS011;4725;48.384;8.984;2023-04-25T05:41:21;7.43;;;2.30;;
9370;SDS011;4725;48.384;8.984;2023-04-25T05:43:48;4.93;;;2.23;;
9370;SDS011;4725;48.384;8.984;2023-04-25T05:46:15;3.77;;;2.13;;
9370;SDS011;4725;48.384;8.984;2023-04-25T05:48:42;4.97;;;2.23;;
9370;SDS011;4725;48.384;8.984;2023-04-25T05:51:09;2.87;;;2.07;;
9370;SDS011;4725;48.384;8.984;2023-04-25T05:53:36;5.97;;;2.30;;
9370;SDS011;4725;48.384;8.984;2023-04-25T05:56:03;5.83;;;2.40;;
9370;SDS011;4725;48.384;8.984;2023-04-25T05:58:31;2.53;;;2.03;;
9370;SDS011;4725;48.384;8.984;2023-04-25T06:00:58;2.83;;;2.20;;
9370;SDS011;4725;48.384;8.984;2023-04-25T06:03:25;4.47;;;1.80;;
9370;SDS011;4725;48.384;8.984;2023-04-25T06:05:52;4.47;;;1.90;;
9370;SDS011;4725;48.384;8.984;2023-04-25T06:08:19;4.77;;;1.60;;
9370;SDS011;4725;48.384;8.984;2023-04-25T06:10:46;4.70;;;1.80;;
9370;SDS011;4725;48.384;8.984;2023-04-25T06:13:13;2.40;;;1.80;;
9370;SDS011;4725;48.384;8.984;2023-04-25T06:15:41;1.87;;;1.77;;
9370;SDS011;4725;48.384;8.984;2023-04-25T06:18:09;3.43;;;1.90;;
9370;SDS011;4725;48.384;8.984;2023-04-25T06:20:35;1.67;;;1.57;;
9370;SDS011;4725;48.384;8.984;2023-04-25T06:23:02;2.57;;;1.80;;
9370;SDS011;4725;48.384;8.984;2023-04-25T06:25:29;2.57;;;1.63;;
9370;SDS011;4725;48.384;8.984;2023-04-25T06:27:56;3.40;;;1.93;;
9370;SDS011;4725;48.384;8.984;2023-04-25T06:30:23;3.13;;;1.70;;
9370;SDS011;4725;48.384;8.984;2023-04-25T06:32:52;2.73;;;1.77;;
9370;SDS011;4725;48.384;8.984;2023-04-25T06:35:19;2.57;;;1.60;;
9370;SDS011;4725;48.384;8.984;2023-04-25T06:37:46;3.23;;;1.70;;
9370;SDS011;4725;48.384;8.984;2023-04-25T06:40:13;2.10;;;1.50;;
9370;SDS011;4725;48.384;8.984;2023-04-25T06:42:40;2.97;;;1.60;;
9370;SDS011;4725;48.384;8.984;2023-04-25T06:45:07;2.23;;;1.50;;
9370;SDS011;4725;48.384;8.984;2023-04-25T06:47:34;2.77;;;1.57;;
9370;SDS011;4725;48.384;8.984;2023-04-25T06:50:03;1.70;;;1.60;;
9370;SDS011;4725;48.384;8.984;2023-04-25T06:52:30;3.40;;;1.70;;
9370;SDS011;4725;48.384;8.984;2023-04-25T06:54:57;2.07;;;1.87;;
9370;SDS011;4725;48.384;8.984;2023-04-25T06:57:24;3.40;;;2.00;;
9370;SDS011;4725;48.384;8.984;2023-04-25T06:59:51;2.53;;;1.80;;
9370;SDS011;4725;48.384;8.984;2023-04-25T07:02:18;2.40;;;1.80;;
9370;SDS011;4725;48.384;8.984;2023-04-25T07:04:46;2.70;;;1.80;;
9370;SDS011;4725;48.384;8.984;2023-04-25T07:07:14;2.50;;;2.07;;
9370;SDS011;4725;48.384;8.984;2023-04-25T07:09:42;3.87;;;1.90;;
9370;SDS011;4725;48.384;8.984;2023-04-25T07:12:08;2.27;;;1.70;;
9370;SDS011;4725;48.384;8.984;2023-04-25T07:14:35;3.03;;;1.90;;
9370;SDS011;4725;48.384;8.984;2023-04-25T07:17:02;5.17;;;2.23;;
9370;SDS011;4725;48.384;8.984;2023-04-25T07:19:31;4.97;;;2.50;;
9370;SDS011;4725;48.384;8.984;2023-04-25T07:21:58;3.30;;;2.13;;
9370;SDS011;4725;48.384;8.984;2023-04-25T07:24:26;3.47;;;2.37;;
9370;SDS011;4725;48.384;8.984;2023-04-25T07:26:53;4.30;;;2.50;;
9370;SDS011;4725;48.384;8.984;2023-04-25T07:29:20;4.27;;;2.93;;
9370;SDS011;4725;48.384;8.984;2023-04-25T07:31:47;7.60;;;2.83;;
9370;SDS011;4725;48.384;8.984;2023-04-25T07:34:14;3.73;;;2.50;;
9370;SDS011;4725;48.384;8.984;2023-04-25T07:36:41;3.60;;;3.27;;
9370;SDS011;4725;48.384;8.984;2023-04-25T07:39:07;6.40;;;2.80;;
9370;SDS011;4725;48.384;8.984;2023-04-25T07:41:36;7.50;;;2.77;;
9370;SDS011;4725;48.384;8.984;2023-04-25T07:44:03;2.47;;;2.20;;
9370;SDS011;4725;48.384;8.984;2023-04-25T07:46:30;2.63;;;2.40;;
9370;SDS011;4725;48.384;8.984;2023-04-25T07:48:57;4.27;;;2.50;;
9370;SDS011;4725;48.384;8.984;2023-04-25T07:51:23;5.60;;;2.43;;
9370;SDS011;4725;48.384;8.984;2023-04-25T07:53:50;3.80;;;2.87;;
9370;SDS011;4725;48.384;8.984;2023-04-25T07:56:17;4.07;;;2.60;;
9370;SDS011;4725;48.384;8.984;2023-04-25T07:58:46;6.43;;;3.00;;
9370;SDS011;4725;48.384;8.984;2023-04-25T08:01:12;3.60;;;2.90;;
9370;SDS011;4725;48.384;8.984;2023-04-25T08:03:39;5.67;;;3.13;;
9370;SDS011;4725;48.384;8.984;2023-04-25T08:06:06;6.10;;;3.77;;
9370;SDS011;4725;48.384;8.984;2023-04-25T08:08:34;3.10;;;2.30;;
9370;SDS011;4725;48.384;8.984;2023-04-25T08:11:01;4.50;;;2.40;;
9370;SDS011;4725;48.384;8.984;2023-04-25T08:13:28;2.53;;;2.23;;
9370;SDS011;4725;48.384;8.984;2023-04-25T08:15:56;5.30;;;2.70;;
9370;SDS011;4725;48.384;8.984;2023-04-25T08:18:23;5.90;;;3.10;;
9370;SDS011;4725;48.384;8.984;2023-04-25T08:20:49;4.10;;;3.07;;
9370;SDS011;4725;48.384;8.984;2023-04-25T08:23:16;4.33;;;3.10;;
9370;SDS011;4725;48.384;8.984;2023-04-25T08:25:43;6.07;;;2.80;;
9370;SDS011;4725;48.384;8.984;2023-04-25T08:28:10;3.57;;;2.93;;
9370;SDS011;4725;48.384;8.984;2023-04-25T08:30:37;4.80;;;2.93;;
9370;SDS011;4725;48.384;8.984;2023-04-25T08:33:05;4.40;;;2.50;;
9370;SDS011;4725;48.384;8.984;2023-04-25T08:35:32;4.23;;;2.50;;
9370;SDS011;4725;48.384;8.984;2023-04-25T08:37:59;3.17;;;2.60;;
9370;SDS011;4725;48.384;8.984;2023-04-25T08:40:27;2.67;;;2.30;;
9370;SDS011;4725;48.384;8.984;2023-04-25T08:42:55;6.90;;;4.13;;
9370;SDS011;4725;48.384;8.984;2023-04-25T08:45:23;3.80;;;1.80;;
9370;SDS011;4725;48.384;8.984;2023-04-25T08:47:52;2.73;;;1.53;;
9370;SDS011;4725;48.384;8.984;2023-04-25T08:50:23;3.17;;;1.47;;
9370;SDS011;4725;48.384;8.984;2023-04-25T08:52:51;2.70;;;1.60;;
9370;SDS011;4725;48.384;8.984;2023-04-25T08:55:21;2.13;;;1.87;;
9370;SDS011;4725;48.384;8.984;2023-04-25T08:57:48;0.93;;;0.73;;
9370;SDS011;4725;48.384;8.984;2023-04-25T09:00:16;0.60;;;0.60;;
9370;SDS011;4725;48.384;8.984;2023-04-25T09:02:44;0.60;;;0.60;;
9370;SDS011;4725;48.384;8.984;2023-04-25T09:05:13;0.57;;;0.57;;
9370;SDS011;4725;48.384;8.984;2023-04-25T09:07:42;0.90;;;0.70;;
9370;SDS011;4725;48.384;8.984;2023-04-25T09:10:09;0.70;;;0.70;;
9370;SDS011;4725;48.384;8.984;2023-04-25T09:12:35;1.10;;;1.00;;
9370;SDS011;4725;48.384;8.984;2023-04-25T09:15:06;1.10;;;0.87;;
9370;SDS011;4725;48.384;8.984;2023-04-25T09:17:34;0.80;;;0.80;;
9370;SDS011;4725;48.384;8.984;2023-04-25T09:20:05;2.03;;;1.13;;
9370;SDS011;4725;48.384;8.984;2023-04-25T09:22:34;1.03;;;0.70;;
9370;SDS011;4725;48.384;8.984;2023-04-25T09:25:03;1.50;;;0.80;;
9370;SDS011;4725;48.384;8.984;2023-04-25T09:27:34;1.83;;;0.87;;
9370;SDS011;4725;48.384;8.984;2023-04-25T09:30:01;1.80;;;1.00;;
9370;SDS011;4725;48.384;8.984;2023-04-25T09:32:28;0.90;;;0.40;;
9370;SDS011;4725;48.384;8.984;2023-04-25T09:34:56;0.90;;;0.80;;
9370;SDS011;4725;48.384;8.984;2023-04-25T09:37:23;0.53;;;0.40;;
9370;SDS011;4725;48.384;8.984;2023-04-25T09:39:53;1.07;;;0.60;;
9370;SDS011;4725;48.384;8.984;2023-04-25T09:42:23;0.53;;;0.50;;
9370;SDS011;4725;48.384;8.984;2023-04-25T09:44:51;0.40;;;0.40;;
9370;SDS011;4725;48.384;8.984;2023-04-25T09:47:20;0.33;;;0.33;;
9370;SDS011;4725;48.384;8.984;2023-04-25T09:49:48;0.40;;;0.40;;
9370;SDS011;4725;48.384;8.984;2023-04-25T09:52:17;0.37;;;0.37;;
9370;SDS011;4725;48.384;8.984;2023-04-25T09:54:44;1.10;;;0.33;;
9370;SDS011;4725;48.384;8.984;2023-04-25T09:57:13;0.20;;;0.20;;
9370;SDS011;4725;48.384;8.984;2023-04-25T09:59:44;0.30;;;0.30;;
9370;SDS011;4725;48.384;8.984;2023-04-25T10:02:12;0.40;;;0.40;;
9370;SDS011;4725;48.384;8.984;2023-04-25T10:04:41;0.87;;;0.40;;
9370;SDS011;4725;48.384;8.984;2023-04-25T10:07:08;0.20;;;0.20;;
9370;SDS011;4725;48.384;8.984;2023-04-25T10:09:36;0.40;;;0.40;;
9370;SDS011;4725;48.384;8.984;2023-04-25T10:12:05;0.40;;;0.40;;
9370;SDS011;4725;48.384;8.984;2023-04-25T10:14:33;0.23;;;0.23;;
9370;SDS011;4725;48.384;8.984;2023-04-25T10:17:02;0.60;;;0.47;;
9370;SDS011;4725;48.384;8.984;2023-04-25T10:19:28;0.60;;;0.50;;
9370;SDS011;4725;48.384;8.984;2023-04-25T10:21:58;0.90;;;0.70;;
9370;SDS011;4725;48.384;8.984;2023-04-25T10:24:32;0.47;;;0.47;;
9370;SDS011;4725;48.384;8.984;2023-04-25T10:26:59;0.57;;;0.57;;
9370;SDS011;4725;48.384;8.984;2023-04-25T10:29:27;0.30;;;0.30;;
9370;SDS011;4725;48.384;8.984;2023-04-25T10:31:53;0.67;;;0.67;;
9370;SDS011;4725;48.384;8.984;2023-04-25T10:34:25;0.57;;;0.43;;
9370;SDS011;4725;48.384;8.984;2023-04-25T10:37:04;0.30;;;0.30;;
9370;SDS011;4725;48.384;8.984;2023-04-25T10:39:34;0.20;;;0.20;;
9370;SDS011;4725;48.384;8.984;2023-04-25T10:42:02;0.30;;;0.30;;
9370;SDS011;4725;48.384;8.984;2023-04-25T10:44:29;0.40;;;0.33;;
9370;SDS011;4725;48.384;8.984;2023-04-25T10:46:57;1.80;;;0.37;;
9370;SDS011;4725;48.384;8.984;2023-04-25T10:49:30;0.50;;;0.50;;
9370;SDS011;4725;48.384;8.984;2023-04-25T10:52:10;0.40;;;0.40;;
9370;SDS011;4725;48.384;8.984;2023-04-25T10:54:42;0.83;;;0.60;;
9370;SDS011;4725;48.384;8.984;2023-04-25T10:57:28;0.80;;;0.67;;
9370;SDS011;4725;48.384;8.984;2023-04-25T10:59:59;1.40;;;0.50;;
9370;SDS011;4725;48.384;8.984;2023-04-25T11:02:31;0.80;;;0.80;;
9370;SDS011;4725;48.384;8.984;2023-04-25T11:05:00;0.40;;;0.40;;
9370;SDS011;4725;48.384;8.984;2023-04-25T11:07:30;0.67;;;0.50;;
9370;SDS011;4725;48.384;8.984;2023-04-25T11:10:01;0.33;;;0.33;;
9370;SDS011;4725;48.384;8.984;2023-04-25T11:12:29;1.20;;;1.10;;
9370;SDS011;4725;48.384;8.984;2023-04-25T11:15:01;2.20;;;0.60;;
9370;SDS011;4725;48.384;8.984;2023-04-25T11:17:29;0.50;;;0.50;;
9370;SDS011;4725;48.384;8.984;2023-04-25T11:19:56;0.60;;;0.40;;
9370;SDS011;4725;48.384;8.984;2023-04-25T11:22:24;0.40;;;0.40;;
9370;SDS011;4725;48.384;8.984;2023-04-25T11:24:53;0.43;;;0.43;;
9370;SDS011;4725;48.384;8.984;2023-04-25T11:27:20;0.30;;;0.30;;
9370;SDS011;4725;48.384;8.984;2023-04-25T11:29:49;0.77;;;0.50;;
9370;SDS011;4725;48.384;8.984;2023-04-25T11:32:17;0.30;;;0.30;;
9370;SDS011;4725;48.384;8.984;2023-04-25T11:34:44;0.47;;;0.47;;
9370;SDS011;4725;48.384;8.984;2023-04-25T11:37:11;0.77;;;0.70;;
9370;SDS011;4725;48.384;8.984;2023-04-25T11:39:43;0.70;;;0.60;;
9370;SDS011;4725;48.384;8.984;2023-04-25T11:42:11;0.53;;;0.53;;
9370;SDS011;4725;48.384;8.984;2023-04-25T11:44:39;0.40;;;0.40;;
9370;SDS011;4725;48.384;8.984;2023-04-25T11:47:07;0.60;;;0.60;;
9370;SDS011;4725;48.384;8.984;2023-04-25T11:49:35;2.20;;;0.50;;
9370;SDS011;4725;48.384;8.984;2023-04-25T11:52:01;0.70;;;0.70;;
9370;SDS011;4725;48.384;8.984;2023-04-25T11:54:29;0.50;;;0.50;;
9370;SDS011;4725;48.384;8.984;2023-04-25T11:56:57;0.60;;;0.60;;
9370;SDS011;4725;48.384;8.984;2023-04-25T11:59:24;1.80;;;0.60;;
9370;SDS011;4725;48.384;8.984;2023-04-25T12:01:51;0.60;;;0.60;;
9370;SDS011;4725;48.384;8.984;2023-04-25T12:04:19;0.40;;;0.40;;
9370;SDS011;4725;48.384;8.984;2023-04-25T12:06:47;0.70;;;0.70;;
9370;SDS011;4725;48.384;8.984;2023-04-25T12:09:15;0.40;;;0.40;;
9370;SDS011;4725;48.384;8.984;2023-04-25T12:11:44;0.67;;;0.60;;
9370;SDS011;4725;48.384;8.984;2023-04-25T12:14:20;0.40;;;0.40;;
9370;SDS011;4725;48.384;8.984;2023-04-25T12:16:49;0.70;;;0.70;;
9370;SDS011;4725;48.384;8.984;2023-04-25T12:19:17;1.70;;;0.70;;
9370;SDS011;4725;48.384;8.984;2023-04-25T12:21:45;0.87;;;0.80;;
9370;SDS011;4725;48.384;8.984;2023-04-25T12:24:12;1.30;;;0.80;;
9370;SDS011;4725;48.384;8.984;2023-04-25T12:26:50;1.07;;;0.97;;
9370;SDS011;4725;48.384;8.984;2023-04-25T12:29:20;0.47;;;0.47;;
9370;SDS011;4725;48.384;8.984;2023-04-25T12:31:49;0.60;;;0.60;;
9370;SDS011;4725;48.384;8.984;2023-04-25T12:34:16;0.70;;;0.70;;
9370;SDS011;4725;48.384;8.984;2023-04-25T12:36:43;0.87;;;0.80;;
9370;SDS011;4725;48.384;8.984;2023-04-25T12:39:14;1.53;;;0.90;;
9370;SDS011;4725;48.384;8.984;2023-04-25T12:41:41;0.70;;;0.70;;
9370;SDS011;4725;48.384;8.984;2023-04-25T12:44:09;1.10;;;1.00;;
9370;SDS011;4725;48.384;8.984;2023-04-25T12:46:37;1.03;;;0.70;;
9370;SDS011;4725;48.384;8.984;2023-04-25T12:49:04;1.00;;;0.97;;
9370;SDS011;4725;48.384;8.984;2023-04-25T12:51:32;2.00;;;1.00;;
9370;SDS011;4725;48.384;8.984;2023-04-25T12:53:59;0.90;;;0.90;;
9370;SDS011;4725;48.384;8.984;2023-04-25T12:56:26;0.50;;;0.50;;
9370;SDS011;4725;48.384;8.984;2023-04-25T12:58:53;0.50;;;0.50;;
9370;SDS011;4725;48.384;8.984;2023-04-25T13:01:19;83.67;;;5.90;;
9370;SDS011;4725;48.384;8.984;2023-04-25T13:03:48;8.90;;;1.10;;
9370;SDS011;4725;48.384;8.984;2023-04-25T13:06:15;0.57;;;0.57;;
9370;SDS011;4725;48.384;8.984;2023-04-25T13:08:42;3.13;;;0.70;;
9370;SDS011;4725;48.384;8.984;2023-04-25T13:11:09;8.73;;;1.30;;
9370;SDS011;4725;48.384;8.984;2023-04-25T13:13:36;0.40;;;0.40;;
9370;SDS011;4725;48.384;8.984;2023-04-25T13:16:04;2.27;;;0.87;;
9370;SDS011;4725;48.384;8.984;2023-04-25T13:18:32;2.77;;;2.13;;
9370;SDS011;4725;48.384;8.984;2023-04-25T13:21:00;3.70;;;1.60;;
9370;SDS011;4725;48.384;8.984;2023-04-25T13:23:28;3.47;;;1.77;;
9370;SDS011;4725;48.384;8.984;2023-04-25T13:25:55;1.87;;;1.00;;
9370;SDS011;4725;48.384;8.984;2023-04-25T13:28:23;2.67;;;1.37;;
9370;SDS011;4725;48.384;8.984;2023-04-25T13:30:50;0.90;;;0.83;;
9370;SDS011;4725;48.384;8.984;2023-04-25T13:33:17;2.20;;;0.80;;
9370;SDS011;4725;48.384;8.984;2023-04-25T13:35:45;1.03;;;0.60;;
9370;SDS011;4725;48.384;8.984;2023-04-25T13:38:20;0.80;;;0.77;;
9370;SDS011;4725;48.384;8.984;2023-04-25T13:40:48;0.90;;;0.60;;
9370;SDS011;4725;48.384;8.984;2023-04-25T13:43:17;1.03;;;0.60;;
9370;SDS011;4725;48.384;8.984;2023-04-25T13:45:44;0.87;;;0.83;;
9370;SDS011;4725;48.384;8.984;2023-04-25T13:48:12;0.70;;;0.70;;
9370;SDS011;4725;48.384;8.984;2023-04-25T13:50:38;1.13;;;0.90;;
9370;SDS011;4725;48.384;8.984;2023-04-25T13:53:05;0.73;;;0.73;;
9370;SDS011;4725;48.384;8.984;2023-04-25T13:55:34;0.67;;;0.67;;
9370;SDS011;4725;48.384;8.984;2023-04-25T13:58:02;0.97;;;0.90;;
9370;SDS011;4725;48.384;8.984;2023-04-25T14:00:32;1.20;;;1.10;;
9370;SDS011;4725;48.384;8.984;2023-04-25T14:03:00;0.87;;;0.80;;
9370;SDS011;4725;48.384;8.984;2023-04-25T14:05:29;1.50;;;1.00;;
9370;SDS011;4725;48.384;8.984;2023-04-25T14:07:57;1.73;;;1.00;;
9370;SDS011;4725;48.384;8.984;2023-04-25T14:10:24;1.20;;;1.10;;
9370;SDS011;4725;48.384;8.984;2023-04-25T14:12:53;1.87;;;1.40;;
9370;SDS011;4725;48.384;8.984;2023-04-25T14:15:19;1.23;;;1.10;;
9370;SDS011;4725;48.384;8.984;2023-04-25T14:17:46;2.33;;;1.40;;
9370;SDS011;4725;48.384;8.984;2023-04-25T14:20:14;0.80;;;0.80;;
9370;SDS011;4725;48.384;8.984;2023-04-25T14:22:45;2.00;;;1.83;;
9370;SDS011;4725;48.384;8.984;2023-04-25T14:25:12;1.40;;;1.20;;
9370;SDS011;4725;48.384;8.984;2023-04-25T14:27:39;1.20;;;1.10;;
9370;SDS011;4725;48.384;8.984;2023-04-25T14:30:08;1.00;;;1.00;;
9370;SDS011;4725;48.384;8.984;2023-04-25T14:32:36;1.07;;;1.00;;
9370;SDS011;4725;48.384;8.984;2023-04-25T14:35:04;1.97;;;1.43;;
9370;SDS011;4725;48.384;8.984;2023-04-25T14:37:32;1.60;;;0.80;;
9370;SDS011;4725;48.384;8.984;2023-04-25T14:39:59;1.67;;;1.08;;
9370;SDS011;4725;48.384;8.984;2023-04-25T14:42:26;0.98;;;0.98;;
9370;SDS011;4725;48.384;8.984;2023-04-25T14:44:52;1.27;;;1.10;;
9370;SDS011;4725;48.384;8.984;2023-04-25T14:47:21;1.02;;;1.00;;
9370;SDS011;4725;48.384;8.984;2023-04-25T14:49:47;1.10;;;1.00;;
9370;SDS011;4725;48.384;8.984;2023-04-25T14:52:19;1.20;;;1.10;;
9370;SDS011;4725;48.384;8.984;2023-04-25T14:54:46;1.45;;;1.13;;
9370;SDS011;4725;48.384;8.984;2023-04-25T14:57:13;1.40;;;1.30;;
9370;SDS011;4725;48.384;8.984;2023-04-25T14:59:40;1.50;;;1.40;;
9370;SDS011;4725;48.384;8.984;2023-04-25T15:02:07;1.67;;;1.58;;
9370;SDS011;4725;48.384;8.984;2023-04-25T15:04:35;1.85;;;1.60;;
9370;SDS011;4725;48.384;8.984;2023-04-25T15:07:02;1.52;;;1.42;;
9370;SDS011;4725;48.384;8.984;2023-04-25T15:09:29;1.50;;;1.40;;
9370;SDS011;4725;48.384;8.984;2023-04-25T15:11:56;1.60;;;1.27;;
9370;SDS011;4725;48.384;8.984;2023-04-25T15:14:23;1.30;;;1.20;;
9370;SDS011;4725;48.384;8.984;2023-04-25T15:16:50;1.48;;;1.38;;
9370;SDS011;4725;48.384;8.984;2023-04-25T15:19:17;0.82;;;0.82;;